Time,TemperatureF,DewpointF,PressureIn,WindDirection,WindDirectionDegrees,WindSpeedMPH,WindSpeedGustMPH,Humidity,HourlyPrecipIn,Conditions,Clouds,dailyrainin,SoftwareType,DateUTC
2013-06-13 00:00:00,65.2,64.0,29.66,WNW,295,0.0,3.0,96,0.07,,,0.00,VWS V14.01,2013-06-13 04:00:00,
2013-06-13 00:01:00,65.1,63.9,29.66,WNW,295,0.0,2.0,96,0.07,,,0.00,VWS V14.01,2013-06-13 04:01:00,
2013-06-13 00:06:00,65.0,63.8,29.66,West,268,2.0,2.0,96,0.06,,,0.00,VWS V14.01,2013-06-13 04:06:00,
2013-06-13 00:11:00,64.9,63.7,29.66,West,267,1.0,2.0,96,0.05,,,0.00,VWS V14.01,2013-06-13 04:11:00,
2013-06-13 00:16:00,64.8,63.6,29.61,NNW,329,1.0,2.0,96,0.08,,,0.04,VWS V14.01,2013-06-13 04:16:00,
2013-06-13 00:21:00,64.7,63.5,29.58,ESE,115,2.0,4.0,96,0.07,,,0.04,VWS V14.01,2013-06-13 04:21:00,
2013-06-13 00:26:00,64.5,63.6,29.56,NNW,332,0.0,10.0,97,0.07,,,0.05,VWS V14.01,2013-06-13 04:26:00,
2013-06-13 00:31:00,64.3,63.1,29.55,NNW,345,0.0,10.0,96,0.07,,,0.05,VWS V14.01,2013-06-13 04:31:00,
2013-06-13 00:36:00,64.1,63.2,29.56,NNW,329,0.0,4.0,97,0.06,,,0.05,VWS V14.01,2013-06-13 04:36:00,
2013-06-13 00:41:00,64.0,63.1,29.58,South,188,0.0,3.0,97,0.06,,,0.05,VWS V14.01,2013-06-13 04:41:00,
2013-06-13 00:46:00,64.0,63.1,29.59,South,189,2.0,3.0,97,0.05,,,0.05,VWS V14.01,2013-06-13 04:46:00,
2013-06-13 00:51:00,64.0,63.1,29.61,SSW,200,0.0,3.0,97,0.05,,,0.05,VWS V14.01,2013-06-13 04:51:00,
2013-06-13 00:55:00,64.1,63.2,29.62,SSW,200,0.0,3.0,97,0.05,,,0.05,VWS V14.01,2013-06-13 04:55:00,
2013-06-13 01:00:00,64.1,63.2,29.63,SSW,200,0.0,3.0,97,0.05,,,0.05,VWS V14.01,2013-06-13 05:00:00,
2013-06-13 01:05:00,64.1,63.2,29.63,SSW,200,0.0,0.0,97,0.05,,,0.05,VWS V14.01,2013-06-13 05:05:00,
2013-06-13 01:10:00,64.2,63.6,29.64,SSW,200,0.0,0.0,98,0.05,,,0.05,VWS V14.01,2013-06-13 05:10:00,
2013-06-13 01:15:00,64.4,63.8,29.66,SSW,200,0.0,2.0,98,0.01,,,0.05,VWS V14.01,2013-06-13 05:15:00,
2013-06-13 01:20:00,64.5,63.9,29.71,WSW,244,0.0,7.0,98,0.02,,,0.06,VWS V14.01,2013-06-13 05:20:00,
2013-06-13 01:25:00,64.3,63.4,29.68,SSW,205,4.0,11.0,97,0.05,,,0.10,VWS V14.01,2013-06-13 05:25:00,
2013-06-13 01:30:00,64.1,63.5,29.66,SW,234,1.0,11.0,98,0.06,,,0.11,VWS V14.01,2013-06-13 05:30:00,
2013-06-13 01:35:00,64.1,63.5,29.62,SSE,163,0.0,8.0,98,0.08,,,0.13,VWS V14.01,2013-06-13 05:35:00,
2013-06-13 01:40:00,64.1,63.5,29.59,SSE,163,0.0,5.0,98,0.09,,,0.14,VWS V14.01,2013-06-13 05:40:00,
2013-06-13 01:45:00,64.1,63.5,29.59,SSE,163,0.0,1.0,98,0.09,,,0.14,VWS V14.01,2013-06-13 05:45:00,
2013-06-13 01:50:00,64.0,63.4,29.59,SSE,163,0.0,1.0,98,0.09,,,0.14,VWS V14.01,2013-06-13 05:50:00,
2013-06-13 01:55:00,64.0,63.4,29.60,SSE,163,0.0,1.0,98,0.09,,,0.14,VWS V14.01,2013-06-13 05:55:00,
2013-06-13 02:00:00,64.0,63.4,29.60,SSE,163,0.0,1.0,98,0.09,,,0.14,VWS V14.01,2013-06-13 06:00:00,
2013-06-13 02:05:00,64.0,63.4,29.61,SSE,163,0.0,0.0,98,0.09,,,0.14,VWS V14.01,2013-06-13 06:05:00,
2013-06-13 02:10:00,64.1,63.5,29.62,SSE,163,0.0,0.0,98,0.09,,,0.14,VWS V14.01,2013-06-13 06:10:00,
2013-06-13 02:15:00,64.1,63.5,29.61,SSE,163,0.0,2.0,98,0.09,,,0.14,VWS V14.01,2013-06-13 06:15:00,
2013-06-13 02:20:00,64.0,63.4,29.59,SSE,163,0.0,2.0,98,0.08,,,0.14,VWS V14.01,2013-06-13 06:20:00,
2013-06-13 02:25:00,63.9,63.3,29.57,SSE,163,0.0,0.0,98,0.04,,,0.14,VWS V14.01,2013-06-13 06:25:00,
2013-06-13 02:30:00,63.8,63.2,29.55,SSE,163,0.0,0.0,98,0.03,,,0.14,VWS V14.01,2013-06-13 06:30:00,
2013-06-13 02:35:00,63.9,63.3,29.50,NNE,12,1.0,1.0,98,0.01,,,0.14,VWS V14.01,2013-06-13 06:35:00,
2013-06-13 02:40:00,63.8,63.2,29.46,NE,42,2.0,5.0,98,0.00,,,0.14,VWS V14.01,2013-06-13 06:40:00,
2013-06-13 02:45:00,63.8,63.2,29.49,SW,236,4.0,5.0,98,0.01,,,0.15,VWS V14.01,2013-06-13 06:45:00,
2013-06-13 02:50:00,63.9,63.3,29.56,SW,227,4.0,5.0,98,0.01,,,0.15,VWS V14.01,2013-06-13 06:50:00,
2013-06-13 02:55:00,63.9,63.3,29.57,West,275,0.0,7.0,98,0.01,,,0.15,VWS V14.01,2013-06-13 06:55:00,
2013-06-13 03:00:00,63.9,63.3,29.56,West,279,1.0,7.0,98,0.01,,,0.15,VWS V14.01,2013-06-13 07:00:00,
2013-06-13 03:05:00,63.9,63.3,29.57,West,273,0.0,4.0,98,0.01,,,0.15,VWS V14.01,2013-06-13 07:05:00,
2013-06-13 03:10:00,63.9,63.3,29.57,West,273,0.0,1.0,98,0.01,,,0.15,VWS V14.01,2013-06-13 07:10:00,
2013-06-13 03:15:00,63.8,63.2,29.57,West,273,0.0,1.0,98,0.01,,,0.15,VWS V14.01,2013-06-13 07:15:00,
2013-06-13 03:20:00,63.9,63.3,29.58,West,273,0.0,0.0,98,0.01,,,0.15,VWS V14.01,2013-06-13 07:20:00,
2013-06-13 03:25:00,63.9,63.3,29.58,West,273,0.0,0.0,98,0.01,,,0.15,VWS V14.01,2013-06-13 07:25:00,
2013-06-13 03:30:00,63.9,63.3,29.58,West,273,0.0,0.0,98,0.01,,,0.15,VWS V14.01,2013-06-13 07:30:00,
2013-06-13 03:35:00,63.9,63.3,29.58,West,273,0.0,0.0,98,0.01,,,0.15,VWS V14.01,2013-06-13 07:35:00,
2013-06-13 03:40:00,63.8,63.2,29.59,West,273,0.0,0.0,98,0.01,,,0.15,VWS V14.01,2013-06-13 07:40:00,
2013-06-13 03:45:00,63.8,63.2,29.60,West,273,0.0,0.0,98,0.00,,,0.15,VWS V14.01,2013-06-13 07:45:00,
2013-06-13 03:50:00,63.8,63.2,29.61,West,273,0.0,0.0,98,0.00,,,0.15,VWS V14.01,2013-06-13 07:50:00,
2013-06-13 03:55:00,63.8,63.2,29.61,West,273,0.0,2.0,98,0.00,,,0.15,VWS V14.01,2013-06-13 07:55:00,
2013-06-13 04:00:00,63.9,63.6,29.61,West,273,0.0,2.0,99,0.00,,,0.15,VWS V14.01,2013-06-13 08:00:00,
2013-06-13 04:05:00,63.9,63.6,29.61,West,273,0.0,2.0,99,0.00,,,0.15,VWS V14.01,2013-06-13 08:05:00,
2013-06-13 04:10:00,63.9,63.6,29.62,NNW,330,0.0,4.0,99,0.00,,,0.15,VWS V14.01,2013-06-13 08:10:00,
2013-06-13 04:15:00,63.9,63.6,29.62,NNW,330,0.0,4.0,99,0.00,,,0.15,VWS V14.01,2013-06-13 08:15:00,
2013-06-13 04:20:00,63.9,63.6,29.63,NW,308,0.0,5.0,99,0.00,,,0.15,VWS V14.01,2013-06-13 08:20:00,
2013-06-13 04:25:00,64.0,63.7,29.63,SW,215,0.0,5.0,99,0.00,,,0.15,VWS V14.01,2013-06-13 08:25:00,
2013-06-13 04:30:00,64.0,63.7,29.63,NW,326,0.0,5.0,99,0.00,,,0.15,VWS V14.01,2013-06-13 08:30:00,
2013-06-13 04:35:00,64.0,63.7,29.63,NNW,333,2.0,2.0,99,0.00,,,0.15,VWS V14.01,2013-06-13 08:35:00,
2013-06-13 04:40:00,63.9,63.3,29.63,North,355,0.0,3.0,98,0.00,,,0.15,VWS V14.01,2013-06-13 08:40:00,
2013-06-13 04:45:00,63.9,63.6,29.63,North,355,0.0,3.0,99,0.00,,,0.15,VWS V14.01,2013-06-13 08:45:00,
2013-06-13 04:50:00,63.8,63.5,29.63,West,277,0.0,3.0,99,0.00,,,0.15,VWS V14.01,2013-06-13 08:50:00,
2013-06-13 04:55:00,63.7,63.4,29.63,West,277,0.0,3.0,99,0.00,,,0.15,VWS V14.01,2013-06-13 08:55:00,
2013-06-13 05:00:00,63.6,63.3,29.64,West,277,0.0,3.0,99,0.00,,,0.15,VWS V14.01,2013-06-13 09:00:00,
2013-06-13 05:05:00,63.5,63.2,29.64,West,281,0.0,2.0,99,0.00,,,0.15,VWS V14.01,2013-06-13 09:05:00,
2013-06-13 05:10:00,63.4,62.8,29.65,NE,43,0.0,2.0,98,0.00,,,0.15,VWS V14.01,2013-06-13 09:10:00,
2013-06-13 05:15:00,63.4,63.1,29.65,NE,43,0.0,2.0,99,0.00,,,0.15,VWS V14.01,2013-06-13 09:15:00,
2013-06-13 05:20:00,63.3,63.0,29.65,NW,305,0.0,2.0,99,0.00,,,0.15,VWS V14.01,2013-06-13 09:20:00,
2013-06-13 05:25:00,63.2,62.9,29.66,West,272,0.0,3.0,99,0.00,,,0.15,VWS V14.01,2013-06-13 09:25:00,
2013-06-13 05:30:00,63.2,62.9,29.66,West,273,0.0,3.0,99,0.00,,,0.15,VWS V14.01,2013-06-13 09:30:00,
2013-06-13 05:35:00,63.1,62.8,29.66,West,273,0.0,3.0,99,0.00,,,0.15,VWS V14.01,2013-06-13 09:35:00,
2013-06-13 05:40:00,63.1,62.8,29.66,NW,312,0.0,4.0,99,0.00,,,0.15,VWS V14.01,2013-06-13 09:40:00,
2013-06-13 05:45:00,63.1,62.8,29.66,NW,313,0.0,4.0,99,0.00,,,0.15,VWS V14.01,2013-06-13 09:45:00,
2013-06-13 05:50:00,63.1,62.8,29.66,NW,313,0.0,4.0,99,0.00,,,0.15,VWS V14.01,2013-06-13 09:50:00,
2013-06-13 05:55:00,63.0,62.7,29.66,West,277,0.0,3.0,99,0.00,,,0.15,VWS V14.01,2013-06-13 09:55:00,
2013-06-13 06:00:00,63.0,62.7,29.66,West,277,0.0,3.0,99,0.00,,,0.15,VWS V14.01,2013-06-13 10:00:00,
2013-06-13 06:05:00,63.1,62.8,29.66,West,261,1.0,3.0,99,0.00,,,0.15,VWS V14.01,2013-06-13 10:05:00,
2013-06-13 06:10:00,63.1,62.8,29.66,West,261,0.0,2.0,99,0.00,,,0.15,VWS V14.01,2013-06-13 10:10:00,
2013-06-13 06:15:00,63.1,62.8,29.66,West,266,0.0,2.0,99,0.00,,,0.15,VWS V14.01,2013-06-13 10:15:00,
2013-06-13 06:20:00,63.1,62.8,29.67,West,266,0.0,0.0,99,0.00,,,0.15,VWS V14.01,2013-06-13 10:20:00,
2013-06-13 06:25:00,63.1,62.8,29.67,West,266,0.0,1.0,99,0.00,,,0.15,VWS V14.01,2013-06-13 10:25:00,
2013-06-13 06:30:00,63.1,62.8,29.67,WNW,303,0.0,2.0,99,0.00,,,0.15,VWS V14.01,2013-06-13 10:30:00,
2013-06-13 06:35:00,63.1,62.8,29.68,WNW,303,0.0,2.0,99,0.00,,,0.15,VWS V14.01,2013-06-13 10:35:00,
2013-06-13 06:39:00,63.2,62.9,29.68,NW,304,0.0,2.0,99,0.00,,,0.15,VWS V14.01,2013-06-13 10:39:00,
2013-06-13 06:44:00,63.2,62.9,29.68,NW,304,0.0,1.0,99,0.00,,,0.15,VWS V14.01,2013-06-13 10:44:00,
2013-06-13 06:49:00,63.2,62.9,29.68,NW,304,0.0,1.0,99,0.00,,,0.15,VWS V14.01,2013-06-13 10:49:00,
2013-06-13 06:54:00,63.2,62.9,29.69,NNE,29,0.0,1.0,99,0.00,,,0.15,VWS V14.01,2013-06-13 10:54:00,
2013-06-13 06:59:00,63.2,62.9,29.69,NNE,27,0.0,2.0,99,0.00,,,0.15,VWS V14.01,2013-06-13 10:59:00,
2013-06-13 07:04:00,63.3,63.0,29.70,West,277,0.0,2.0,99,0.00,,,0.15,VWS V14.01,2013-06-13 11:04:00,
2013-06-13 07:09:00,63.2,62.9,29.70,West,277,0.0,2.0,99,0.00,,,0.15,VWS V14.01,2013-06-13 11:09:00,
2013-06-13 07:14:00,63.2,62.9,29.71,West,271,0.0,2.0,99,0.00,,,0.15,VWS V14.01,2013-06-13 11:14:00,
2013-06-13 07:19:00,63.2,62.9,29.71,SSW,207,0.0,4.0,99,0.00,,,0.15,VWS V14.01,2013-06-13 11:19:00,
2013-06-13 07:24:00,63.2,62.9,29.71,SSW,207,0.0,4.0,99,0.00,,,0.15,VWS V14.01,2013-06-13 11:24:00,
2013-06-13 07:29:00,63.1,62.8,29.71,SSW,207,0.0,4.0,99,0.00,,,0.15,VWS V14.01,2013-06-13 11:29:00,
2013-06-13 07:34:00,63.1,62.8,29.70,SSW,207,0.0,1.0,99,0.00,,,0.15,VWS V14.01,2013-06-13 11:34:00,
2013-06-13 07:39:00,63.0,62.7,29.71,SSW,207,0.0,1.0,99,0.00,,,0.15,VWS V14.01,2013-06-13 11:39:00,
2013-06-13 07:44:00,62.9,62.6,29.70,SSW,207,0.0,1.0,99,0.00,,,0.15,VWS V14.01,2013-06-13 11:44:00,
2013-06-13 07:49:00,62.9,62.6,29.71,SSW,207,0.0,0.0,99,0.00,,,0.15,VWS V14.01,2013-06-13 11:49:00,
2013-06-13 07:54:00,62.9,62.6,29.72,SSW,207,0.0,1.0,99,0.00,,,0.15,VWS V14.01,2013-06-13 11:54:00,
2013-06-13 07:59:00,63.0,62.7,29.73,SSW,207,0.0,1.0,99,0.00,,,0.15,VWS V14.01,2013-06-13 11:59:00,
2013-06-13 08:04:00,62.9,62.6,29.73,ENE,59,2.0,2.0,99,0.00,,,0.15,VWS V14.01,2013-06-13 12:04:00,
2013-06-13 08:09:00,62.7,62.4,29.73,SSE,147,2.0,3.0,99,0.00,,,0.15,VWS V14.01,2013-06-13 12:09:00,
2013-06-13 08:14:00,62.7,62.4,29.73,SE,138,0.0,3.0,99,0.00,,,0.15,VWS V14.01,2013-06-13 12:14:00,
2013-06-13 08:19:00,62.8,62.5,29.74,West,260,1.0,2.0,99,0.00,,,0.15,VWS V14.01,2013-06-13 12:19:00,
2013-06-13 08:24:00,62.7,62.4,29.75,West,260,0.0,1.0,99,0.00,,,0.15,VWS V14.01,2013-06-13 12:24:00,
2013-06-13 08:29:00,62.5,62.2,29.75,NNW,329,0.0,2.0,99,0.00,,,0.15,VWS V14.01,2013-06-13 12:29:00,
2013-06-13 08:34:00,62.4,62.1,29.74,NNE,15,0.0,2.0,99,0.00,,,0.15,VWS V14.01,2013-06-13 12:34:00,
2013-06-13 08:39:00,62.1,61.5,29.75,North,355,0.0,2.0,98,0.00,,,0.15,VWS V14.01,2013-06-13 12:39:00,
2013-06-13 08:44:00,62.0,61.4,29.76,North,355,0.0,2.0,98,0.00,,,0.15,VWS V14.01,2013-06-13 12:44:00,
2013-06-13 08:49:00,62.3,62.0,29.75,WNW,288,0.0,2.0,99,0.00,,,0.15,VWS V14.01,2013-06-13 12:49:00,
2013-06-13 08:54:00,62.6,62.3,29.76,NW,309,0.0,2.0,99,0.00,,,0.15,VWS V14.01,2013-06-13 12:54:00,
2013-06-13 08:59:00,62.8,62.5,29.76,NW,313,0.0,5.0,99,0.00,,,0.15,VWS V14.01,2013-06-13 12:59:00,
2013-06-13 09:04:00,62.7,62.1,29.76,NW,323,0.0,5.0,98,0.00,,,0.15,VWS V14.01,2013-06-13 13:04:00,
2013-06-13 09:09:00,62.6,62.0,29.77,East,100,0.0,5.0,98,0.00,,,0.15,VWS V14.01,2013-06-13 13:09:00,
2013-06-13 09:14:00,62.5,61.9,29.77,NNW,342,1.0,5.0,98,0.00,,,0.15,VWS V14.01,2013-06-13 13:14:00,
2013-06-13 09:19:00,62.4,61.5,29.77,SSE,150,0.0,5.0,97,0.00,,,0.15,VWS V14.01,2013-06-13 13:19:00,
2013-06-13 09:24:00,62.7,61.8,29.78,ESE,113,0.0,4.0,97,0.00,,,0.15,VWS V14.01,2013-06-13 13:24:00,
2013-06-13 09:29:00,62.8,61.3,29.78,NNW,346,1.0,4.0,95,0.00,,,0.15,VWS V14.01,2013-06-13 13:29:00,
2013-06-13 09:34:00,63.1,61.3,29.78,West,270,0.0,4.0,94,0.00,,,0.15,VWS V14.01,2013-06-13 13:34:00,
2013-06-13 09:39:00,63.5,61.4,29.78,NW,325,0.0,3.0,93,0.00,,,0.15,VWS V14.01,2013-06-13 13:39:00,
2013-06-13 09:44:00,63.8,61.4,29.78,West,269,0.0,3.0,92,0.00,,,0.15,VWS V14.01,2013-06-13 13:44:00,
2013-06-13 09:49:00,64.2,61.5,29.78,ENE,72,1.0,2.0,91,0.00,,,0.15,VWS V14.01,2013-06-13 13:49:00,
2013-06-13 09:54:00,64.4,61.4,29.79,NE,49,0.0,4.0,90,0.00,,,0.15,VWS V14.01,2013-06-13 13:54:00,
2013-06-13 09:59:00,64.9,61.3,29.79,SSW,203,1.0,4.0,88,0.00,,,0.15,VWS V14.01,2013-06-13 13:59:00,
2013-06-13 10:04:00,65.2,60.6,29.79,ESE,107,1.0,4.0,85,0.00,,,0.15,VWS V14.01,2013-06-13 14:04:00,
2013-06-13 10:09:00,65.9,60.6,29.79,NW,323,1.0,6.0,83,0.00,,,0.15,VWS V14.01,2013-06-13 14:09:00,
2013-06-13 10:14:00,67.0,61.0,29.80,West,278,0.0,6.0,81,0.00,,,0.15,VWS V14.01,2013-06-13 14:14:00,
2013-06-13 10:19:00,68.3,60.8,29.80,West,262,0.0,6.0,77,0.00,,,0.15,VWS V14.01,2013-06-13 14:19:00,
2013-06-13 10:24:00,68.9,61.8,29.80,ENE,58,1.0,5.0,78,0.00,,,0.15,VWS V14.01,2013-06-13 14:24:00,
2013-06-13 10:29:00,69.1,61.2,29.80,WNW,290,0.0,5.0,76,0.00,,,0.15,VWS V14.01,2013-06-13 14:29:00,
2013-06-13 10:34:00,69.2,61.0,29.80,NNE,26,0.0,4.0,75,0.00,,,0.15,VWS V14.01,2013-06-13 14:34:00,
2013-06-13 10:39:00,69.7,61.4,29.80,NW,316,0.0,3.0,75,0.00,,,0.15,VWS V14.01,2013-06-13 14:39:00,
2013-06-13 10:44:00,70.3,62.0,29.80,NE,34,0.0,4.0,75,0.00,,,0.15,VWS V14.01,2013-06-13 14:44:00,
2013-06-13 10:49:00,70.8,62.1,29.80,WNW,302,2.0,5.0,74,0.00,,,0.15,VWS V14.01,2013-06-13 14:49:00,
2013-06-13 10:54:00,71.6,62.9,29.80,North,355,2.0,5.0,74,0.00,,,0.15,VWS V14.01,2013-06-13 14:54:00,
2013-06-13 10:59:00,72.1,62.6,29.80,West,263,1.0,5.0,72,0.00,,,0.15,VWS V14.01,2013-06-13 14:59:00,
2013-06-13 11:04:00,72.8,62.0,29.80,West,281,0.0,5.0,69,0.00,,,0.15,VWS V14.01,2013-06-13 15:04:00,
2013-06-13 11:09:00,72.7,62.0,29.80,NNW,335,2.0,5.0,69,0.00,,,0.15,VWS V14.01,2013-06-13 15:09:00,
2013-06-13 11:14:00,72.3,63.6,29.80,North,355,0.0,5.0,74,0.00,,,0.15,VWS V14.01,2013-06-13 15:14:00,
2013-06-13 11:19:00,72.9,63.8,29.80,NNW,329,0.0,5.0,73,0.00,,,0.15,VWS V14.01,2013-06-13 15:19:00,
2013-06-13 11:24:00,73.5,62.7,29.80,SW,228,0.0,4.0,69,0.00,,,0.15,VWS V14.01,2013-06-13 15:24:00,
2013-06-13 11:29:00,73.0,61.8,29.81,NNW,348,0.0,4.0,68,0.00,,,0.15,VWS V14.01,2013-06-13 15:29:00,
2013-06-13 11:34:00,73.0,62.2,29.81,WNW,297,0.0,5.0,69,0.00,,,0.15,VWS V14.01,2013-06-13 15:34:00,
2013-06-13 11:39:00,73.3,62.9,29.81,NW,317,1.0,6.0,70,0.00,,,0.15,VWS V14.01,2013-06-13 15:39:00,
2013-06-13 11:44:00,73.3,63.7,29.81,North,355,3.0,6.0,72,0.00,,,0.15,VWS V14.01,2013-06-13 15:44:00,
2013-06-13 11:49:00,73.1,62.3,29.81,NE,48,0.0,6.0,69,0.00,,,0.15,VWS V14.01,2013-06-13 15:49:00,
2013-06-13 11:54:00,73.1,62.7,29.81,NNE,15,1.0,6.0,70,0.00,,,0.15,VWS V14.01,2013-06-13 15:54:00,
2013-06-13 11:59:00,73.0,62.7,29.82,WNW,303,0.0,6.0,70,0.00,,,0.15,VWS V14.01,2013-06-13 15:59:00,
2013-06-13 12:04:00,73.1,60.7,29.82,NE,49,1.0,6.0,65,0.00,,,0.15,VWS V14.01,2013-06-13 16:04:00,
2013-06-13 12:09:00,73.0,61.8,29.82,East,82,1.0,6.0,68,0.00,,,0.15,VWS V14.01,2013-06-13 16:09:00,
2013-06-13 12:14:00,73.1,61.9,29.82,NW,317,1.0,8.0,68,0.00,,,0.15,VWS V14.01,2013-06-13 16:14:00,
2013-06-13 12:19:00,73.1,58.9,29.82,NNW,328,0.0,8.0,61,0.00,,,0.15,VWS V14.01,2013-06-13 16:19:00,
2013-06-13 12:24:00,73.3,60.0,29.82,NW,318,1.0,5.0,63,0.00,,,0.15,VWS V14.01,2013-06-13 16:24:00,
2013-06-13 12:29:00,73.3,60.0,29.82,NNW,335,0.0,8.0,63,0.00,,,0.15,VWS V14.01,2013-06-13 16:29:00,
2013-06-13 12:34:00,73.9,61.0,29.82,NNW,340,4.0,8.0,64,0.00,,,0.15,VWS V14.01,2013-06-13 16:34:00,
2013-06-13 12:38:00,74.2,62.1,29.83,West,275,3.0,8.0,66,0.00,,,0.15,VWS V14.01,2013-06-13 16:38:00,
2013-06-13 12:43:00,73.9,61.0,29.83,SSW,211,1.0,7.0,64,0.00,,,0.15,VWS V14.01,2013-06-13 16:43:00,
2013-06-13 12:48:00,74.1,59.3,29.83,West,267,0.0,7.0,60,0.00,,,0.15,VWS V14.01,2013-06-13 16:48:00,
2013-06-13 12:53:00,74.2,60.8,29.83,WNW,282,1.0,7.0,63,0.00,,,0.15,VWS V14.01,2013-06-13 16:53:00,
2013-06-13 12:58:00,73.9,59.2,29.83,WNW,290,2.0,6.0,60,0.00,,,0.15,VWS V14.01,2013-06-13 16:58:00,
2013-06-13 13:03:00,74.0,58.8,29.83,West,274,2.0,8.0,59,0.00,,,0.15,VWS V14.01,2013-06-13 17:03:00,
2013-06-13 13:08:00,74.0,62.4,29.83,North,5,2.0,8.0,67,0.00,,,0.15,VWS V14.01,2013-06-13 17:08:00,
2013-06-13 13:13:00,74.2,60.4,29.84,NNW,335,5.0,8.0,62,0.00,,,0.15,VWS V14.01,2013-06-13 17:13:00,
2013-06-13 13:18:00,73.6,61.1,29.84,NNW,329,2.0,9.0,65,0.00,,,0.15,VWS V14.01,2013-06-13 17:18:00,
2013-06-13 13:23:00,73.8,61.3,29.84,NNW,328,3.0,9.0,65,0.00,,,0.15,VWS V14.01,2013-06-13 17:23:00,
2013-06-13 13:28:00,74.2,61.7,29.84,WNW,285,5.0,9.0,65,0.00,,,0.15,VWS V14.01,2013-06-13 17:28:00,
2013-06-13 13:33:00,73.7,60.3,29.84,North,5,0.0,9.0,63,0.00,,,0.15,VWS V14.01,2013-06-13 17:33:00,
2013-06-13 13:38:00,73.4,60.5,29.84,ENE,73,3.0,7.0,64,0.00,,,0.15,VWS V14.01,2013-06-13 17:38:00,
2013-06-13 13:43:00,73.4,59.6,29.84,NW,315,1.0,7.0,62,0.00,,,0.15,VWS V14.01,2013-06-13 17:43:00,
2013-06-13 13:48:00,73.8,60.9,29.84,NNW,346,0.0,9.0,64,0.00,,,0.15,VWS V14.01,2013-06-13 17:48:00,
2013-06-13 13:53:00,74.0,59.7,29.84,NE,56,0.0,9.0,61,0.00,,,0.15,VWS V14.01,2013-06-13 17:53:00,
2013-06-13 13:58:00,74.0,59.7,29.84,ENE,60,1.0,9.0,61,0.00,,,0.15,VWS V14.01,2013-06-13 17:58:00,
2013-06-13 14:03:00,74.1,61.6,29.85,NW,320,0.0,9.0,65,0.00,,,0.15,VWS V14.01,2013-06-13 18:03:00,
2013-06-13 14:08:00,73.9,62.3,29.85,NNW,336,1.0,8.0,67,0.00,,,0.15,VWS V14.01,2013-06-13 18:08:00,
2013-06-13 14:13:00,74.6,62.1,29.85,WSW,257,2.0,6.0,65,0.00,,,0.15,VWS V14.01,2013-06-13 18:13:00,
2013-06-13 14:18:00,74.6,61.2,29.85,North,360,2.0,6.0,63,0.00,,,0.15,VWS V14.01,2013-06-13 18:18:00,
2013-06-13 14:23:00,73.9,58.7,29.86,South,180,4.0,9.0,59,0.00,,,0.15,VWS V14.01,2013-06-13 18:23:00,
2013-06-13 14:28:00,73.4,60.0,29.86,West,275,4.0,11.0,63,0.00,,,0.15,VWS V14.01,2013-06-13 18:28:00,
2013-06-13 14:33:00,73.8,61.3,29.86,SSW,204,0.0,11.0,65,0.00,,,0.15,VWS V14.01,2013-06-13 18:33:00,
2013-06-13 14:38:00,73.5,60.6,29.86,SE,144,2.0,11.0,64,0.00,,,0.15,VWS V14.01,2013-06-13 18:38:00,
2013-06-13 14:43:00,73.6,60.7,29.86,WNW,302,0.0,9.0,64,0.00,,,0.15,VWS V14.01,2013-06-13 18:43:00,
2013-06-13 14:48:00,73.5,62.3,29.87,West,280,2.0,9.0,68,0.00,,,0.15,VWS V14.01,2013-06-13 18:48:00,
2013-06-13 14:53:00,73.0,62.2,29.87,NE,55,0.0,8.0,69,0.00,,,0.15,VWS V14.01,2013-06-13 18:53:00,
2013-06-13 14:58:00,72.7,61.5,29.87,North,5,1.0,10.0,68,0.00,,,0.15,VWS V14.01,2013-06-13 18:58:00,
2013-06-13 15:03:00,72.5,60.9,29.88,NNW,341,5.0,10.0,67,0.00,,,0.15,VWS V14.01,2013-06-13 19:03:00,
2013-06-13 15:08:00,72.3,61.6,29.88,West,274,0.0,11.0,69,0.00,,,0.15,VWS V14.01,2013-06-13 19:08:00,
2013-06-13 15:13:00,72.3,59.9,29.88,North,5,2.0,11.0,65,0.00,,,0.15,VWS V14.01,2013-06-13 19:13:00,
2013-06-13 15:18:00,72.1,59.7,29.88,North,5,1.0,7.0,65,0.00,,,0.15,VWS V14.01,2013-06-13 19:18:00,
2013-06-13 15:23:00,72.4,61.7,29.89,WSW,253,6.0,7.0,69,0.00,,,0.15,VWS V14.01,2013-06-13 19:23:00,
2013-06-13 15:28:00,72.0,59.2,29.89,NE,53,2.0,9.0,64,0.00,,,0.15,VWS V14.01,2013-06-13 19:28:00,
2013-06-13 15:33:00,71.3,60.2,29.89,WNW,292,2.0,9.0,68,0.00,,,0.15,VWS V14.01,2013-06-13 19:33:00,
2013-06-13 15:38:00,71.4,58.6,29.89,NW,319,0.0,11.0,64,0.00,,,0.15,VWS V14.01,2013-06-13 19:38:00,
2013-06-13 15:43:00,71.2,58.8,29.89,NNW,330,4.0,11.0,65,0.00,,,0.15,VWS V14.01,2013-06-13 19:43:00,
2013-06-13 15:48:00,70.5,58.6,29.90,West,268,7.0,11.0,66,0.00,,,0.15,VWS V14.01,2013-06-13 19:48:00,
2013-06-13 15:53:00,69.9,58.0,29.90,NW,325,2.0,8.0,66,0.00,,,0.15,VWS V14.01,2013-06-13 19:53:00,
2013-06-13 15:58:00,70.1,59.9,29.90,WSW,256,2.0,7.0,70,0.00,,,0.15,VWS V14.01,2013-06-13 19:58:00,
2013-06-13 16:03:00,70.1,58.2,29.91,SSE,154,1.0,7.0,66,0.00,,,0.15,VWS V14.01,2013-06-13 20:03:00,
2013-06-13 16:08:00,69.9,58.5,29.91,WNW,283,1.0,8.0,67,0.00,,,0.15,VWS V14.01,2013-06-13 20:08:00,
2013-06-13 16:13:00,69.7,59.9,29.91,NNW,348,3.0,8.0,71,0.00,,,0.15,VWS V14.01,2013-06-13 20:13:00,
2013-06-13 16:18:00,69.6,59.8,29.91,North,11,2.0,8.0,71,0.00,,,0.15,VWS V14.01,2013-06-13 20:18:00,
2013-06-13 16:23:00,69.0,57.2,29.91,NNW,340,3.0,8.0,66,0.00,,,0.15,VWS V14.01,2013-06-13 20:23:00,
2013-06-13 16:28:00,68.3,57.3,29.92,NW,323,2.0,10.0,68,0.00,,,0.15,VWS V14.01,2013-06-13 20:28:00,
2013-06-13 16:33:00,68.0,57.9,29.91,North,5,4.0,10.0,70,0.00,,,0.15,VWS V14.01,2013-06-13 20:33:00,
2013-06-13 16:38:00,68.1,58.0,29.91,West,274,1.0,10.0,70,0.00,,,0.15,VWS V14.01,2013-06-13 20:38:00,
2013-06-13 16:43:00,68.1,58.0,29.91,North,360,3.0,7.0,70,0.00,,,0.15,VWS V14.01,2013-06-13 20:43:00,
2013-06-13 16:48:00,68.1,58.0,29.91,North,9,1.0,7.0,70,0.00,,,0.15,VWS V14.01,2013-06-13 20:48:00,
2013-06-13 16:53:00,68.0,57.9,29.92,NE,46,3.0,6.0,70,0.00,,,0.15,VWS V14.01,2013-06-13 20:53:00,
2013-06-13 16:58:00,67.3,57.2,29.92,WNW,283,5.0,12.0,70,0.00,,,0.15,VWS V14.01,2013-06-13 20:58:00,
2013-06-13 17:03:00,67.1,56.6,29.92,NNW,340,2.0,12.0,69,0.00,,,0.15,VWS V14.01,2013-06-13 21:03:00,
2013-06-13 17:08:00,67.0,57.3,29.92,NNW,332,1.0,8.0,71,0.00,,,0.15,VWS V14.01,2013-06-13 21:08:00,
2013-06-13 17:13:00,67.1,57.8,29.93,North,350,3.0,8.0,72,0.00,,,0.15,VWS V14.01,2013-06-13 21:13:00,
2013-06-13 17:18:00,66.8,56.7,29.93,North,9,5.0,7.0,70,0.00,,,0.15,VWS V14.01,2013-06-13 21:18:00,
2013-06-13 17:23:00,66.5,56.8,29.92,NNW,331,2.0,7.0,71,0.00,,,0.15,VWS V14.01,2013-06-13 21:23:00,
2013-06-13 17:28:00,66.5,56.8,29.92,SSW,200,1.0,7.0,71,0.00,,,0.15,VWS V14.01,2013-06-13 21:28:00,
2013-06-13 17:33:00,66.6,56.9,29.92,NNE,26,0.0,5.0,71,0.00,,,0.15,VWS V14.01,2013-06-13 21:33:00,
2013-06-13 17:38:00,66.5,56.0,29.92,North,360,3.0,7.0,69,0.00,,,0.15,VWS V14.01,2013-06-13 21:38:00,
2013-06-13 17:43:00,66.3,56.2,29.92,ESE,107,5.0,7.0,70,0.00,,,0.15,VWS V14.01,2013-06-13 21:43:00,
2013-06-13 17:48:00,66.3,56.2,29.92,WSW,258,0.0,7.0,70,0.00,,,0.15,VWS V14.01,2013-06-13 21:48:00,
2013-06-13 17:53:00,66.3,55.8,29.92,NNW,343,2.0,7.0,69,0.00,,,0.15,VWS V14.01,2013-06-13 21:53:00,
2013-06-13 17:58:00,66.2,56.1,29.91,North,351,0.0,11.0,70,0.00,,,0.15,VWS V14.01,2013-06-13 21:58:00,
2013-06-13 18:03:00,66.4,56.7,29.92,NNW,346,1.0,11.0,71,0.00,,,0.15,VWS V14.01,2013-06-13 22:03:00,
2013-06-13 18:08:00,66.5,56.0,29.92,NNW,342,1.0,11.0,69,0.00,,,0.15,VWS V14.01,2013-06-13 22:08:00,
2013-06-13 18:13:00,66.4,55.9,29.92,WNW,302,0.0,10.0,69,0.00,,,0.15,VWS V14.01,2013-06-13 22:13:00,
2013-06-13 18:18:00,66.5,56.0,29.92,NW,325,0.0,10.0,69,0.00,,,0.15,VWS V14.01,2013-06-13 22:18:00,
2013-06-13 18:23:00,66.6,56.1,29.92,NE,53,2.0,6.0,69,0.00,,,0.15,VWS V14.01,2013-06-13 22:23:00,
2013-06-13 18:28:00,66.6,56.5,29.92,NNW,330,2.0,6.0,70,0.00,,,0.15,VWS V14.01,2013-06-13 22:28:00,
2013-06-13 18:33:00,66.8,56.3,29.92,North,5,0.0,7.0,69,0.00,,,0.15,VWS V14.01,2013-06-13 22:33:00,
2013-06-13 18:38:00,67.0,56.1,29.91,West,277,4.0,7.0,68,0.00,,,0.15,VWS V14.01,2013-06-13 22:38:00,
2013-06-13 18:43:00,67.0,55.7,29.91,NW,311,2.0,6.0,67,0.00,,,0.15,VWS V14.01,2013-06-13 22:43:00,
2013-06-13 18:48:00,67.0,55.7,29.91,NW,305,8.0,9.0,67,0.00,,,0.15,VWS V14.01,2013-06-13 22:48:00,
2013-06-13 18:53:00,66.7,55.4,29.91,North,355,3.0,9.0,67,0.00,,,0.15,VWS V14.01,2013-06-13 22:53:00,
2013-06-13 18:58:00,66.5,56.0,29.91,NNE,30,1.0,8.0,69,0.00,,,0.15,VWS V14.01,2013-06-13 22:58:00,
2013-06-13 19:03:00,66.3,55.4,29.91,NE,38,2.0,8.0,68,0.00,,,0.15,VWS V14.01,2013-06-13 23:03:00,
2013-06-13 19:08:00,66.2,55.3,29.91,South,172,4.0,8.0,68,0.00,,,0.15,VWS V14.01,2013-06-13 23:08:00,
2013-06-13 19:13:00,66.2,55.3,29.91,North,360,0.0,8.0,68,0.00,,,0.15,VWS V14.01,2013-06-13 23:13:00,
2013-06-13 19:18:00,66.3,55.4,29.91,North,5,3.0,8.0,68,0.00,,,0.15,VWS V14.01,2013-06-13 23:18:00,
2013-06-13 19:23:00,66.3,55.4,29.92,North,9,4.0,7.0,68,0.00,,,0.15,VWS V14.01,2013-06-13 23:23:00,
2013-06-13 19:28:00,66.3,55.0,29.91,NW,320,3.0,6.0,67,0.00,,,0.15,VWS V14.01,2013-06-13 23:28:00,
2013-06-13 19:32:00,66.3,55.8,29.91,NE,44,3.0,6.0,69,0.00,,,0.15,VWS V14.01,2013-06-13 23:32:00,
2013-06-13 19:37:00,66.3,55.4,29.92,WSW,255,2.0,6.0,68,0.00,,,0.15,VWS V14.01,2013-06-13 23:37:00,
2013-06-13 19:42:00,66.6,55.7,29.92,NNW,340,0.0,6.0,68,0.00,,,0.15,VWS V14.01,2013-06-13 23:42:00,
2013-06-13 19:47:00,66.8,56.3,29.92,NNW,347,1.0,6.0,69,0.00,,,0.15,VWS V14.01,2013-06-13 23:47:00,
2013-06-13 19:52:00,66.9,56.0,29.92,WNW,300,0.0,5.0,68,0.00,,,0.15,VWS V14.01,2013-06-13 23:52:00,
2013-06-13 19:57:00,66.7,56.2,29.92,NW,306,1.0,4.0,69,0.00,,,0.15,VWS V14.01,2013-06-13 23:57:00,
2013-06-13 20:02:00,66.4,55.5,29.92,SE,138,0.0,8.0,68,0.00,,,0.15,VWS V14.01,2013-06-14 00:02:00,
2013-06-13 20:07:00,66.1,55.7,29.92,ENE,77,2.0,8.0,69,0.00,,,0.15,VWS V14.01,2013-06-14 00:07:00,
2013-06-13 20:12:00,65.8,55.8,29.92,NW,317,2.0,8.0,70,0.00,,,0.15,VWS V14.01,2013-06-14 00:12:00,
2013-06-13 20:17:00,65.4,55.4,29.92,NW,308,2.0,6.0,70,0.00,,,0.15,VWS V14.01,2013-06-14 00:17:00,
2013-06-13 20:22:00,65.1,55.5,29.92,West,279,2.0,6.0,71,0.00,,,0.15,VWS V14.01,2013-06-14 00:22:00,
2013-06-13 20:27:00,64.9,55.7,29.92,NW,309,0.0,6.0,72,0.00,,,0.15,VWS V14.01,2013-06-14 00:27:00,
2013-06-13 20:32:00,64.6,55.4,29.92,WNW,302,2.0,8.0,72,0.00,,,0.15,VWS V14.01,2013-06-14 00:32:00,
2013-06-13 20:37:00,64.2,55.4,29.92,NNW,340,0.0,10.0,73,0.00,,,0.15,VWS V14.01,2013-06-14 00:37:00,
2013-06-13 20:42:00,63.9,55.5,29.92,North,350,3.0,10.0,74,0.00,,,0.15,VWS V14.01,2013-06-14 00:42:00,
2013-06-13 20:47:00,63.6,55.5,29.93,NE,45,2.0,8.0,75,0.00,,,0.15,VWS V14.01,2013-06-14 00:47:00,
2013-06-13 20:52:00,63.2,55.5,29.92,ENE,66,2.0,4.0,76,0.00,,,0.15,VWS V14.01,2013-06-14 00:52:00,
2013-06-13 20:57:00,62.9,55.6,29.93,ESE,121,2.0,4.0,77,0.00,,,0.15,VWS V14.01,2013-06-14 00:57:00,
2013-06-13 21:02:00,62.6,55.3,29.93,West,263,0.0,5.0,77,0.00,,,0.15,VWS V14.01,2013-06-14 01:02:00,
2013-06-13 21:07:00,62.3,55.0,29.93,NNW,327,0.0,5.0,77,0.00,,,0.15,VWS V14.01,2013-06-14 01:07:00,
2013-06-13 21:12:00,62.0,55.1,29.93,North,350,0.0,5.0,78,0.00,,,0.15,VWS V14.01,2013-06-14 01:12:00,
2013-06-13 21:17:00,61.7,54.8,29.93,NNW,340,0.0,5.0,78,0.00,,,0.15,VWS V14.01,2013-06-14 01:17:00,
2013-06-13 21:22:00,61.5,54.9,29.93,NW,319,2.0,5.0,79,0.00,,,0.15,VWS V14.01,2013-06-14 01:22:00,
2013-06-13 21:27:00,61.2,55.0,29.93,NW,313,0.0,5.0,80,0.00,,,0.15,VWS V14.01,2013-06-14 01:27:00,
2013-06-13 21:32:00,61.0,54.8,29.93,North,5,2.0,4.0,80,0.00,,,0.15,VWS V14.01,2013-06-14 01:32:00,
2013-06-13 21:37:00,60.8,54.9,29.93,NW,321,0.0,3.0,81,0.00,,,0.15,VWS V14.01,2013-06-14 01:37:00,
2013-06-13 21:42:00,60.4,54.5,29.93,WNW,296,0.0,4.0,81,0.00,,,0.15,VWS V14.01,2013-06-14 01:42:00,
2013-06-13 21:47:00,60.1,54.6,29.94,WNW,296,0.0,4.0,82,0.00,,,0.15,VWS V14.01,2013-06-14 01:47:00,
2013-06-13 21:52:00,59.9,54.4,29.94,WNW,288,1.0,6.0,82,0.00,,,0.15,VWS V14.01,2013-06-14 01:52:00,
2013-06-13 21:57:00,59.7,54.5,29.94,East,101,0.0,6.0,83,0.00,,,0.15,VWS V14.01,2013-06-14 01:57:00,
2013-06-13 22:02:00,59.5,54.7,29.94,WNW,296,0.0,6.0,84,0.00,,,0.15,VWS V14.01,2013-06-14 02:02:00,
2013-06-13 22:07:00,59.3,54.5,29.94,NNW,348,0.0,2.0,84,0.00,,,0.15,VWS V14.01,2013-06-14 02:07:00,
2013-06-13 22:12:00,59.2,54.4,29.95,SSE,167,0.0,2.0,84,0.00,,,0.15,VWS V14.01,2013-06-14 02:12:00,
2013-06-13 22:17:00,59.0,54.5,29.95,NW,310,0.0,1.0,85,0.00,,,0.15,VWS V14.01,2013-06-14 02:17:00,
2013-06-13 22:22:00,58.9,54.4,29.95,NW,310,0.0,1.0,85,0.00,,,0.15,VWS V14.01,2013-06-14 02:22:00,
2013-06-13 22:27:00,58.7,54.5,29.95,WNW,288,0.0,2.0,86,0.00,,,0.15,VWS V14.01,2013-06-14 02:27:00,
2013-06-13 22:32:00,58.6,54.4,29.95,WNW,288,0.0,2.0,86,0.00,,,0.15,VWS V14.01,2013-06-14 02:32:00,
2013-06-13 22:37:00,58.4,54.2,29.95,WNW,288,0.0,2.0,86,0.00,,,0.15,VWS V14.01,2013-06-14 02:37:00,
2013-06-13 22:42:00,58.3,54.5,29.96,West,265,0.0,5.0,87,0.00,,,0.15,VWS V14.01,2013-06-14 02:42:00,
2013-06-13 22:47:00,58.2,54.4,29.96,North,350,0.0,5.0,87,0.00,,,0.15,VWS V14.01,2013-06-14 02:47:00,
2013-06-13 22:52:00,58.1,54.3,29.96,North,350,0.0,2.0,87,0.00,,,0.15,VWS V14.01,2013-06-14 02:52:00,
2013-06-13 22:57:00,57.9,54.4,29.96,North,350,0.0,1.0,88,0.00,,,0.15,VWS V14.01,2013-06-14 02:57:00,
2013-06-13 23:02:00,57.8,54.3,29.96,North,350,0.0,0.0,88,0.00,,,0.15,VWS V14.01,2013-06-14 03:02:00,
2013-06-13 23:07:00,57.7,54.2,29.96,North,350,0.0,0.0,88,0.00,,,0.15,VWS V14.01,2013-06-14 03:07:00,
2013-06-13 23:12:00,57.5,54.0,29.96,West,277,0.0,2.0,88,0.00,,,0.15,VWS V14.01,2013-06-14 03:12:00,
2013-06-13 23:17:00,57.5,54.3,29.96,West,277,0.0,2.0,89,0.00,,,0.15,VWS V14.01,2013-06-14 03:17:00,
2013-06-13 23:22:00,57.4,54.2,29.96,West,279,0.0,2.0,89,0.00,,,0.15,VWS V14.01,2013-06-14 03:22:00,
2013-06-13 23:27:00,57.3,54.1,29.96,West,279,0.0,2.0,89,0.00,,,0.15,VWS V14.01,2013-06-14 03:27:00,
2013-06-13 23:32:00,57.3,54.1,29.96,West,279,0.0,2.0,89,0.00,,,0.15,VWS V14.01,2013-06-14 03:32:00,
2013-06-13 23:37:00,57.1,54.2,29.96,West,279,0.0,2.0,90,0.00,,,0.15,VWS V14.01,2013-06-14 03:37:00,
2013-06-13 23:42:00,57.1,54.2,29.96,West,279,0.0,1.0,90,0.00,,,0.15,VWS V14.01,2013-06-14 03:42:00,
2013-06-13 23:47:00,56.9,54.0,29.96,West,279,0.0,0.0,90,0.00,,,0.15,VWS V14.01,2013-06-14 03:47:00,
2013-06-13 23:52:00,56.9,54.0,29.96,West,279,0.0,1.0,90,0.00,,,0.15,VWS V14.01,2013-06-14 03:52:00,
2013-06-13 23:57:00,56.8,53.9,29.96,West,279,0.0,1.0,90,0.00,,,0.15,VWS V14.01,2013-06-14 03:57:00,